sensor_id;sensor_type;location;lat;lon;timestamp;pressure;altitude;pressure_sealevel;temperature;humidity
35479;BME280;21594;49.794;18.652;2022-09-28T00:01:36;96621.89;;;10.68;100.00
35479;BME280;21594;49.794;18.652;2022-09-28T00:04:02;96616.56;;;10.56;100.00
35479;BME280;21594;49.794;18.652;2022-09-28T00:06:31;96619.27;;;10.46;100.00
35479;BME280;21594;49.794;18.652;2022-09-28T00:08:57;96626.55;;;10.39;100.00
35479;BME280;21594;49.794;18.652;2022-09-28T00:11:31;96622.71;;;10.29;100.00
35479;BME280;21594;49.794;18.652;2022-09-28T00:16:33;96616.08;;;10.21;100.00
35479;BME280;21594;49.794;18.652;2022-09-28T00:19:01;96620.17;;;10.20;100.00
35479;BME280;21594;49.794;18.652;2022-09-28T00:21:28;96617.36;;;10.17;100.00
35479;BME280;21594;49.794;18.652;2022-09-28T00:23:57;96620.94;;;10.16;100.00
35479;BME280;21594;49.794;18.652;2022-09-28T00:26:47;96615.71;;;10.16;100.00
35479;BME280;21594;49.794;18.652;2022-09-28T00:29:15;96614.69;;;10.13;100.00
35479;BME280;21594;49.794;18.652;2022-09-28T00:31:41;96613.09;;;10.16;100.00
35479;BME280;21594;49.794;18.652;2022-09-28T00:34:13;96611.31;;;10.17;100.00
35479;BME280;21594;49.794;18.652;2022-09-28T00:36:46;96616.87;;;10.18;100.00
35479;BME280;21594;49.794;18.652;2022-09-28T00:39:13;96613.95;;;10.21;100.00
35479;BME280;21594;49.794;18.652;2022-09-28T00:41:41;96610.09;;;10.25;100.00
35479;BME280;21594;49.794;18.652;2022-09-28T00:49:35;96618.70;;;10.21;100.00
35479;BME280;21594;49.794;18.652;2022-09-28T00:52:07;96613.30;;;10.19;100.00
35479;BME280;21594;49.794;18.652;2022-09-28T00:57:15;96612.69;;;10.11;100.00
35479;BME280;21594;49.794;18.652;2022-09-28T00:59:41;96606.98;;;10.12;100.00
35479;BME280;21594;49.794;18.652;2022-09-28T01:02:07;96603.41;;;10.13;100.00
35479;BME280;21594;49.794;18.652;2022-09-28T01:04:35;96605.53;;;10.13;100.00
35479;BME280;21594;49.794;18.652;2022-09-28T01:07:05;96609.25;;;10.11;100.00
35479;BME280;21594;49.794;18.652;2022-09-28T01:09:37;96617.75;;;10.08;100.00
35479;BME280;21594;49.794;18.652;2022-09-28T01:12:04;96618.68;;;10.03;100.00
35479;BME280;21594;49.794;18.652;2022-09-28T01:14:37;96622.25;;;10.02;100.00
35479;BME280;21594;49.794;18.652;2022-09-28T01:27:46;96620.37;;;9.95;100.00
35479;BME280;21594;49.794;18.652;2022-09-28T01:30:23;96614.97;;;9.92;100.00
35479;BME280;21594;49.794;18.652;2022-09-28T01:33:01;96622.13;;;9.90;100.00
35479;BME280;21594;49.794;18.652;2022-09-28T01:35:39;96621.74;;;9.85;100.00
35479;BME280;21594;49.794;18.652;2022-09-28T01:40:33;96613.08;;;9.85;100.00
35479;BME280;21594;49.794;18.652;2022-09-28T01:43:02;96609.47;;;9.82;100.00
35479;BME280;21594;49.794;18.652;2022-09-28T01:45:30;96613.22;;;9.83;100.00
35479;BME280;21594;49.794;18.652;2022-09-28T01:47:57;96609.47;;;9.82;100.00
35479;BME280;21594;49.794;18.652;2022-09-28T01:50:24;96606.79;;;9.78;100.00
35479;BME280;21594;49.794;18.652;2022-09-28T01:55:30;96606.72;;;9.70;100.00
35479;BME280;21594;49.794;18.652;2022-09-28T01:58:01;96602.25;;;9.66;100.00
35479;BME280;21594;49.794;18.652;2022-09-28T02:00:24;96607.57;;;9.60;100.00
35479;BME280;21594;49.794;18.652;2022-09-28T02:05:42;96609.14;;;9.53;100.00
35479;BME280;21594;49.794;18.652;2022-09-28T02:08:11;96609.85;;;9.46;100.00
35479;BME280;21594;49.794;18.652;2022-09-28T02:13:19;96610.64;;;9.42;100.00
35479;BME280;21594;49.794;18.652;2022-09-28T02:15:55;96605.77;;;9.43;100.00
35479;BME280;21594;49.794;18.652;2022-09-28T02:18:15;96605.07;;;9.41;100.00
35479;BME280;21594;49.794;18.652;2022-09-28T02:20:43;96610.56;;;9.38;100.00
35479;BME280;21594;49.794;18.652;2022-09-28T02:23:09;96606.99;;;9.39;100.00
35479;BME280;21594;49.794;18.652;2022-09-28T02:25:51;96612.22;;;9.39;100.00
35479;BME280;21594;49.794;18.652;2022-09-28T02:28:17;96610.43;;;9.40;100.00
35479;BME280;21594;49.794;18.652;2022-09-28T02:30:52;96618.08;;;9.37;100.00
35479;BME280;21594;49.794;18.652;2022-09-28T02:35:49;96626.19;;;9.34;100.00
35479;BME280;21594;49.794;18.652;2022-09-28T02:38:18;96621.27;;;9.31;100.00
35479;BME280;21594;49.794;18.652;2022-09-28T02:40:56;96610.95;;;9.30;100.00
35479;BME280;21594;49.794;18.652;2022-09-28T02:43:18;96614.39;;;9.30;100.00
35479;BME280;21594;49.794;18.652;2022-09-28T02:45:44;96610.78;;;9.27;100.00
35479;BME280;21594;49.794;18.652;2022-09-28T02:48:23;96608.96;;;9.28;100.00
35479;BME280;21594;49.794;18.652;2022-09-28T03:06:49;96623.87;;;9.31;100.00
35479;BME280;21594;49.794;18.652;2022-09-28T03:09:23;96620.30;;;9.32;100.00
35479;BME280;21594;49.794;18.652;2022-09-28T03:11:50;96619.96;;;9.31;100.00
35479;BME280;21594;49.794;18.652;2022-09-28T03:14:13;96614.00;;;9.25;100.00
35479;BME280;21594;49.794;18.652;2022-09-28T03:16:43;96613.39;;;9.27;100.00
35479;BME280;21594;49.794;18.652;2022-09-28T03:19:12;96614.48;;;9.24;100.00
35479;BME280;21594;49.794;18.652;2022-09-28T03:21:44;96613.87;;;9.27;100.00
35479;BME280;21594;49.794;18.652;2022-09-28T03:24:10;96615.66;;;9.26;100.00
35479;BME280;21594;49.794;18.652;2022-09-28T03:26:38;96614.27;;;9.22;100.00
35479;BME280;21594;49.794;18.652;2022-09-28T03:29:04;96622.61;;;9.21;100.00
35479;BME280;21594;49.794;18.652;2022-09-28T03:31:31;96624.71;;;9.22;100.00
35479;BME280;21594;49.794;18.652;2022-09-28T03:33:58;96623.75;;;9.23;100.00
35479;BME280;21594;49.794;18.652;2022-09-28T03:36:24;96624.09;;;9.24;100.00
35479;BME280;21594;49.794;18.652;2022-09-28T03:38:52;96621.48;;;9.24;100.00
35479;BME280;21594;49.794;18.652;2022-09-28T03:41:23;96630.83;;;9.27;100.00
35479;BME280;21594;49.794;18.652;2022-09-28T03:43:52;96628.06;;;9.28;100.00
35479;BME280;21594;49.794;18.652;2022-09-28T03:46:30;96633.76;;;9.28;100.00
35479;BME280;21594;49.794;18.652;2022-09-28T03:48:56;96626.09;;;9.26;100.00
35479;BME280;21594;49.794;18.652;2022-09-28T03:51:26;96627.75;;;9.27;100.00
35479;BME280;21594;49.794;18.652;2022-09-28T03:53:54;96636.23;;;9.29;100.00
35479;BME280;21594;49.794;18.652;2022-09-28T03:56:20;96634.80;;;9.31;100.00
35479;BME280;21594;49.794;18.652;2022-09-28T03:58:47;96633.02;;;9.31;100.00
35479;BME280;21594;49.794;18.652;2022-09-28T04:01:13;96637.89;;;9.30;100.00
35479;BME280;21594;49.794;18.652;2022-09-28T04:03:43;96630.40;;;9.31;100.00
35479;BME280;21594;49.794;18.652;2022-09-28T04:06:10;96629.27;;;9.34;100.00
35479;BME280;21594;49.794;18.652;2022-09-28T04:08:39;96638.89;;;9.33;100.00
35479;BME280;21594;49.794;18.652;2022-09-28T04:11:08;96631.06;;;9.33;100.00
35479;BME280;21594;49.794;18.652;2022-09-28T04:13:38;96628.52;;;9.37;100.00
35479;BME280;21594;49.794;18.652;2022-09-28T04:16:04;96627.53;;;9.38;100.00
35479;BME280;21594;49.794;18.652;2022-09-28T04:18:40;96622.52;;;9.41;100.00
35479;BME280;21594;49.794;18.652;2022-09-28T04:21:09;96622.04;;;9.41;100.00
35479;BME280;21594;49.794;18.652;2022-09-28T04:23:35;96616.37;;;9.46;100.00
35479;BME280;21594;49.794;18.652;2022-09-28T04:26:02;96612.95;;;9.45;100.00
35479;BME280;21594;49.794;18.652;2022-09-28T04:28:32;96610.64;;;9.42;100.00
35479;BME280;21594;49.794;18.652;2022-09-28T04:31:17;96615.13;;;9.36;100.00
35479;BME280;21594;49.794;18.652;2022-09-28T04:33:43;96614.65;;;9.37;100.00
35479;BME280;21594;49.794;18.652;2022-09-28T04:36:09;96611.39;;;9.39;100.00
35479;BME280;21594;49.794;18.652;2022-09-28T04:38:38;96612.42;;;9.42;100.00
35479;BME280;21594;49.794;18.652;2022-09-28T04:41:04;96612.29;;;9.43;100.00
35479;BME280;21594;49.794;18.652;2022-09-28T04:46:05;96615.56;;;9.32;100.00
35479;BME280;21594;49.794;18.652;2022-09-28T04:48:31;96627.58;;;9.29;100.00
35479;BME280;21594;49.794;18.652;2022-09-28T04:50:59;96620.09;;;9.30;100.00
35479;BME280;21594;49.794;18.652;2022-09-28T04:53:25;96620.23;;;9.28;100.00
35479;BME280;21594;49.794;18.652;2022-09-28T04:55:56;96622.18;;;9.26;100.00
35479;BME280;21594;49.794;18.652;2022-09-28T04:58:23;96620.58;;;9.29;100.00
35479;BME280;21594;49.794;18.652;2022-09-28T05:00:49;96626.63;;;9.30;100.00
35479;BME280;21594;49.794;18.652;2022-09-28T05:03:17;96624.71;;;9.22;100.00
35479;BME280;21594;49.794;18.652;2022-09-28T05:05:43;96622.27;;;9.20;100.00
35479;BME280;21594;49.794;18.652;2022-09-28T05:08:09;96627.48;;;9.20;100.00
35479;BME280;21594;49.794;18.652;2022-09-28T05:10:37;96628.23;;;9.17;100.00
35479;BME280;21594;49.794;18.652;2022-09-28T05:13:06;96625.58;;;9.13;100.00
35479;BME280;21594;49.794;18.652;2022-09-28T05:15:40;96625.31;;;9.16;100.00
35479;BME280;21594;49.794;18.652;2022-09-28T05:18:07;96627.41;;;9.16;100.00
35479;BME280;21594;49.794;18.652;2022-09-28T05:20:38;96629.06;;;9.17;100.00
35479;BME280;21594;49.794;18.652;2022-09-28T05:23:01;96634.28;;;9.17;100.00
35479;BME280;21594;49.794;18.652;2022-09-28T05:25:27;96637.72;;;9.18;100.00
35479;BME280;21594;49.794;18.652;2022-09-28T05:27:56;96638.67;;;9.17;100.00
35479;BME280;21594;49.794;18.652;2022-09-28T05:30:24;96643.28;;;9.19;100.00
35479;BME280;21594;49.794;18.652;2022-09-28T05:32:50;96635.10;;;9.18;100.00
35479;BME280;21594;49.794;18.652;2022-09-28T05:35:19;96633.27;;;9.14;100.00
35479;BME280;21594;49.794;18.652;2022-09-28T05:37:53;96629.23;;;9.16;100.00
35479;BME280;21594;49.794;18.652;2022-09-28T05:40:19;96629.89;;;9.18;100.00
35479;BME280;21594;49.794;18.652;2022-09-28T05:42:51;96622.88;;;9.18;100.00
35479;BME280;21594;49.794;18.652;2022-09-28T05:45:18;96625.84;;;9.19;100.00
35479;BME280;21594;49.794;18.652;2022-09-28T05:52:42;96626.27;;;9.15;100.00
35479;BME280;21594;49.794;18.652;2022-09-28T05:55:09;96634.92;;;9.15;100.00
35479;BME280;21594;49.794;18.652;2022-09-28T05:57:38;96634.45;;;9.16;100.00
35479;BME280;21594;49.794;18.652;2022-09-28T06:00:04;96635.88;;;9.14;100.00
35479;BME280;21594;49.794;18.652;2022-09-28T06:02:32;96633.06;;;9.12;100.00
35479;BME280;21594;49.794;18.652;2022-09-28T06:05:01;96640.41;;;9.12;100.00
35479;BME280;21594;49.794;18.652;2022-09-28T06:07:27;96638.02;;;9.15;100.00
35479;BME280;21594;49.794;18.652;2022-09-28T06:09:53;96641.77;;;9.16;100.00
35479;BME280;21594;49.794;18.652;2022-09-28T06:12:19;96634.02;;;9.20;100.00
35479;BME280;21594;49.794;18.652;2022-09-28T06:14:45;96638.45;;;9.24;100.00
35479;BME280;21594;49.794;18.652;2022-09-28T06:17:11;96638.45;;;9.24;100.00
35479;BME280;21594;49.794;18.652;2022-09-28T06:19:37;96635.23;;;9.26;100.00
35479;BME280;21594;49.794;18.652;2022-09-28T06:22:04;96637.54;;;9.29;100.00
35479;BME280;21594;49.794;18.652;2022-09-28T06:24:30;96624.70;;;9.32;100.00
35479;BME280;21594;49.794;18.652;2022-09-28T06:26:55;96628.66;;;9.36;100.00
35479;BME280;21594;49.794;18.652;2022-09-28T06:29:25;96625.61;;;9.40;100.00
35479;BME280;21594;49.794;18.652;2022-09-28T06:31:54;96618.95;;;9.42;100.00
35479;BME280;21594;49.794;18.652;2022-09-28T06:34:20;96616.91;;;9.49;100.00
35479;BME280;21594;49.794;18.652;2022-09-28T06:36:47;96612.58;;;9.54;100.00
35479;BME280;21594;49.794;18.652;2022-09-28T06:39:13;96615.71;;;9.57;100.00
35479;BME280;21594;49.794;18.652;2022-09-28T06:41:39;96622.28;;;9.61;100.00
35479;BME280;21594;49.794;18.652;2022-09-28T06:44:06;96605.99;;;9.63;100.00
35479;BME280;21594;49.794;18.652;2022-09-28T06:46:32;96606.72;;;9.70;100.00
35479;BME280;21594;49.794;18.652;2022-09-28T06:48:58;96602.15;;;9.72;100.00
35479;BME280;21594;49.794;18.652;2022-09-28T06:51:24;96610.19;;;9.74;100.00
35479;BME280;21594;49.794;18.652;2022-09-28T06:53:50;96606.17;;;9.80;100.00
35479;BME280;21594;49.794;18.652;2022-09-28T06:56:26;96602.15;;;9.85;100.00
35479;BME280;21594;49.794;18.652;2022-09-28T06:58:52;96601.02;;;9.88;100.00
35479;BME280;21594;49.794;18.652;2022-09-28T07:01:18;96602.77;;;9.97;100.00
35479;BME280;21594;49.794;18.652;2022-09-28T07:03:44;96607.06;;;10.02;100.00
35479;BME280;21594;49.794;18.652;2022-09-28T07:06:10;96609.25;;;10.11;100.00
35479;BME280;21594;49.794;18.652;2022-09-28T07:08:37;96608.48;;;10.14;100.00
35479;BME280;21594;49.794;18.652;2022-09-28T07:13:42;96620.44;;;10.30;100.00
35479;BME280;21594;49.794;18.652;2022-09-28T07:16:05;96618.22;;;10.39;100.00
35479;BME280;21594;49.794;18.652;2022-09-28T07:18:31;96620.27;;;10.49;100.00
35479;BME280;21594;49.794;18.652;2022-09-28T07:20:59;96623.92;;;10.57;100.00
35479;BME280;21594;49.794;18.652;2022-09-28T07:23:27;96622.33;;;10.64;100.00
35479;BME280;21594;49.794;18.652;2022-09-28T07:25:54;96626.64;;;10.69;100.00
35479;BME280;21594;49.794;18.652;2022-09-28T07:28:21;96626.33;;;10.72;100.00
35479;BME280;21594;49.794;18.652;2022-09-28T07:30:47;96621.44;;;10.73;100.00
35479;BME280;21594;49.794;18.652;2022-09-28T07:33:16;96628.70;;;10.83;100.00
35479;BME280;21594;49.794;18.652;2022-09-28T07:35:51;96623.70;;;10.94;100.00
35479;BME280;21594;49.794;18.652;2022-09-28T07:38:18;96622.75;;;10.99;100.00
35479;BME280;21594;49.794;18.652;2022-09-28T07:40:45;96612.84;;;11.10;100.00
35479;BME280;21594;49.794;18.652;2022-09-28T07:43:29;96603.89;;;11.17;100.00
35479;BME280;21594;49.794;18.652;2022-09-28T07:45:55;96604.58;;;11.23;100.00
35479;BME280;21594;49.794;18.652;2022-09-28T07:48:21;96599.02;;;11.26;100.00
35479;BME280;21594;49.794;18.652;2022-09-28T07:50:54;96598.34;;;11.24;100.00
35479;BME280;21594;49.794;18.652;2022-09-28T07:53:18;96595.58;;;11.25;100.00
35479;BME280;21594;49.794;18.652;2022-09-28T07:56:03;96589.72;;;11.31;100.00
35479;BME280;21594;49.794;18.652;2022-09-28T07:58:15;96588.59;;;11.34;100.00
35479;BME280;21594;49.794;18.652;2022-09-28T08:00:41;96581.39;;;11.36;100.00
35479;BME280;21594;49.794;18.652;2022-09-28T08:03:08;96583.70;;;11.39;100.00
35479;BME280;21594;49.794;18.652;2022-09-28T08:05:34;96577.02;;;11.45;100.00
35479;BME280;21594;49.794;18.652;2022-09-28T08:08:00;96570.00;;;11.53;100.00
35479;BME280;21594;49.794;18.652;2022-09-28T08:10:27;96573.45;;;11.62;100.00
35479;BME280;21594;49.794;18.652;2022-09-28T08:12:53;96573.34;;;11.71;100.00
35479;BME280;21594;49.794;18.652;2022-09-28T08:15:21;96577.50;;;11.78;100.00
35479;BME280;21594;49.794;18.652;2022-09-28T08:17:56;96579.97;;;11.88;100.00
35479;BME280;21594;49.794;18.652;2022-09-28T08:20:23;96568.17;;;11.88;100.00
35479;BME280;21594;49.794;18.652;2022-09-28T08:22:53;96577.04;;;12.11;100.00
35479;BME280;21594;49.794;18.652;2022-09-28T08:25:19;96587.37;;;12.16;100.00
35479;BME280;21594;49.794;18.652;2022-09-28T08:27:45;96583.12;;;12.24;100.00
35479;BME280;21594;49.794;18.652;2022-09-28T08:30:13;96589.19;;;12.28;100.00
35479;BME280;21594;49.794;18.652;2022-09-28T08:32:44;96588.05;;;12.35;100.00
35479;BME280;21594;49.794;18.652;2022-09-28T08:35:07;96593.16;;;12.48;100.00
35479;BME280;21594;49.794;18.652;2022-09-28T08:37:37;96596.92;;;12.58;100.00
35479;BME280;21594;49.794;18.652;2022-09-28T08:40:02;96586.58;;;12.61;100.00
35479;BME280;21594;49.794;18.652;2022-09-28T08:42:29;96588.56;;;12.58;100.00
35479;BME280;21594;49.794;18.652;2022-09-28T08:44:57;96589.38;;;12.59;100.00
35479;BME280;21594;49.794;18.652;2022-09-28T08:50:15;96585.93;;;12.63;100.00
35479;BME280;21594;49.794;18.652;2022-09-28T08:52:38;96590.20;;;12.64;100.00
35479;BME280;21594;49.794;18.652;2022-09-28T08:57:35;96582.16;;;12.57;100.00
35479;BME280;21594;49.794;18.652;2022-09-28T09:00:00;96585.44;;;12.51;100.00
35479;BME280;21594;49.794;18.652;2022-09-28T09:05:05;96578.56;;;12.54;100.00
35479;BME280;21594;49.794;18.652;2022-09-28T09:23:18;96573.95;;;12.76;100.00
35479;BME280;21594;49.794;18.652;2022-09-28T09:33:50;96569.96;;;13.00;100.00
35479;BME280;21594;49.794;18.652;2022-09-28T09:38:55;96554.83;;;13.11;100.00
35479;BME280;21594;49.794;18.652;2022-09-28T09:49:03;96553.59;;;13.46;100.00
35479;BME280;21594;49.794;18.652;2022-09-28T09:51:46;96550.78;;;13.51;100.00
35479;BME280;21594;49.794;18.652;2022-09-28T09:56:47;96544.00;;;13.61;100.00
35479;BME280;21594;49.794;18.652;2022-09-28T10:01:41;96537.20;;;13.70;100.00
35479;BME280;21594;49.794;18.652;2022-09-28T10:04:11;96546.70;;;13.75;100.00
35479;BME280;21594;49.794;18.652;2022-09-28T10:06:35;96538.45;;;13.82;100.00
35479;BME280;21594;49.794;18.652;2022-09-28T10:09:25;96539.41;;;13.86;100.00
35479;BME280;21594;49.794;18.652;2022-09-28T10:11:47;96546.67;;;13.83;100.00
35479;BME280;21594;49.794;18.652;2022-09-28T10:14:19;96543.55;;;13.84;100.00
35479;BME280;21594;49.794;18.652;2022-09-28T10:16:49;96539.41;;;13.90;100.00
35479;BME280;21594;49.794;18.652;2022-09-28T10:19:17;96541.02;;;13.95;100.00
35479;BME280;21594;49.794;18.652;2022-09-28T10:21:44;96541.64;;;14.01;100.00
35479;BME280;21594;49.794;18.652;2022-09-28T10:24:45;96548.02;;;14.06;100.00
35479;BME280;21594;49.794;18.652;2022-09-28T10:26:45;96544.69;;;14.08;100.00
35479;BME280;21594;49.794;18.652;2022-09-28T10:29:20;96536.43;;;14.15;100.00
35479;BME280;21594;49.794;18.652;2022-09-28T10:31:48;96531.95;;;14.20;100.00
35479;BME280;21594;49.794;18.652;2022-09-28T10:34:13;96525.81;;;14.28;100.00
35479;BME280;21594;49.794;18.652;2022-09-28T10:36:53;96512.25;;;14.35;100.00
35479;BME280;21594;49.794;18.652;2022-09-28T10:41:51;96500.23;;;14.40;100.00
35479;BME280;21594;49.794;18.652;2022-09-28T10:44:18;96499.07;;;14.43;100.00
35479;BME280;21594;49.794;18.652;2022-09-28T10:46:45;96500.22;;;14.44;100.00
35479;BME280;21594;49.794;18.652;2022-09-28T10:49:16;96492.33;;;14.40;100.00
35479;BME280;21594;49.794;18.652;2022-09-28T10:51:46;96482.61;;;14.45;100.00
35479;BME280;21594;49.794;18.652;2022-09-28T10:56:48;96466.45;;;14.62;100.00
35479;BME280;21594;49.794;18.652;2022-09-28T11:01:52;96461.08;;;14.75;100.00
35479;BME280;21594;49.794;18.652;2022-09-28T11:04:19;96463.75;;;14.85;100.00
35479;BME280;21594;49.794;18.652;2022-09-28T11:06:46;96465.81;;;14.94;100.00
35479;BME280;21594;49.794;18.652;2022-09-28T11:09:25;96466.67;;;15.05;100.00
35479;BME280;21594;49.794;18.652;2022-09-28T11:11:51;96468.38;;;15.13;100.00
35479;BME280;21594;49.794;18.652;2022-09-28T11:14:27;96463.42;;;15.14;100.00
35479;BME280;21594;49.794;18.652;2022-09-28T11:19:40;96451.53;;;15.28;100.00
35479;BME280;21594;49.794;18.652;2022-09-28T11:22:39;96443.53;;;15.36;100.00
35479;BME280;21594;49.794;18.652;2022-09-28T11:24:42;96442.22;;;15.36;100.00
35479;BME280;21594;49.794;18.652;2022-09-28T11:27:09;96453.34;;;15.42;100.00
35479;BME280;21594;49.794;18.652;2022-09-28T11:29:42;96453.27;;;15.46;100.00
35479;BME280;21594;49.794;18.652;2022-09-28T11:32:11;96451.14;;;15.46;100.00
35479;BME280;21594;49.794;18.652;2022-09-28T11:34:42;96449.97;;;15.48;100.00
35479;BME280;21594;49.794;18.652;2022-09-28T11:44:48;96437.40;;;15.65;100.00
35479;BME280;21594;49.794;18.652;2022-09-28T11:55:18;96429.09;;;16.00;100.00
35479;BME280;21594;49.794;18.652;2022-09-28T11:57:45;96434.75;;;16.08;100.00
35479;BME280;21594;49.794;18.652;2022-09-28T12:00:17;96427.58;;;16.12;100.00
35479;BME280;21594;49.794;18.652;2022-09-28T12:07:45;96425.10;;;16.21;100.00
35479;BME280;21594;49.794;18.652;2022-09-28T12:10:26;96421.30;;;16.13;100.00
35479;BME280;21594;49.794;18.652;2022-09-28T12:12:49;96427.70;;;16.04;100.00
35479;BME280;21594;49.794;18.652;2022-09-28T12:15:26;96411.59;;;15.93;100.00
35479;BME280;21594;49.794;18.652;2022-09-28T12:20:24;96419.23;;;15.87;100.00
35479;BME280;21594;49.794;18.652;2022-09-28T12:22:53;96419.44;;;15.86;100.00
35479;BME280;21594;49.794;18.652;2022-09-28T12:25:18;96414.84;;;15.84;100.00
35479;BME280;21594;49.794;18.652;2022-09-28T12:27:50;96419.19;;;15.81;100.00
35479;BME280;21594;49.794;18.652;2022-09-28T12:30:19;96419.48;;;15.82;100.00
35479;BME280;21594;49.794;18.652;2022-09-28T12:38:07;96428.16;;;15.97;100.00
35479;BME280;21594;49.794;18.652;2022-09-28T12:48:44;96403.86;;;15.80;100.00
35479;BME280;21594;49.794;18.652;2022-09-28T12:51:13;96402.16;;;15.83;100.00
35479;BME280;21594;49.794;18.652;2022-09-28T13:06:53;96416.23;;;15.44;100.00
35479;BME280;21594;49.794;18.652;2022-09-28T13:09:29;96400.61;;;15.32;100.00
35479;BME280;21594;49.794;18.652;2022-09-28T13:23:10;96395.28;;;15.00;100.00
35479;BME280;21594;49.794;18.652;2022-09-28T13:25:10;96391.56;;;14.94;100.00
35479;BME280;21594;49.794;18.652;2022-09-28T13:27:38;96405.14;;;14.87;100.00
35479;BME280;21594;49.794;18.652;2022-09-28T13:30:05;96402.03;;;14.84;100.00
35479;BME280;21594;49.794;18.652;2022-09-28T13:32:33;96404.17;;;14.84;100.00
35479;BME280;21594;49.794;18.652;2022-09-28T13:35:00;96397.47;;;14.82;100.00
35479;BME280;21594;49.794;18.652;2022-09-28T13:37:28;96391.06;;;14.80;100.00
35479;BME280;21594;49.794;18.652;2022-09-28T13:39:58;96397.55;;;14.74;100.00
35479;BME280;21594;49.794;18.652;2022-09-28T13:42:45;96386.67;;;14.77;100.00
35479;BME280;21594;49.794;18.652;2022-09-28T13:45:14;96382.61;;;14.85;100.00
35479;BME280;21594;49.794;18.652;2022-09-28T13:55:32;96371.48;;;15.29;100.00
35479;BME280;21594;49.794;18.652;2022-09-28T13:58:01;96368.84;;;15.40;100.00
35479;BME280;21594;49.794;18.652;2022-09-28T14:03:27;96364.67;;;15.56;100.00
35479;BME280;21594;49.794;18.652;2022-09-28T14:08:44;96361.47;;;15.61;100.00
35479;BME280;21594;49.794;18.652;2022-09-28T14:13:58;96360.94;;;15.55;100.00
35479;BME280;21594;49.794;18.652;2022-09-28T14:16:25;96350.64;;;15.45;100.00
35479;BME280;21594;49.794;18.652;2022-09-28T14:18:59;96352.60;;;15.36;100.00
35479;BME280;21594;49.794;18.652;2022-09-28T14:24:21;96357.23;;;15.24;100.00
35479;BME280;21594;49.794;18.652;2022-09-28T14:29:31;96355.72;;;15.15;100.00
35479;BME280;21594;49.794;18.652;2022-09-28T14:32:20;96344.72;;;15.11;100.00
35479;BME280;21594;49.794;18.652;2022-09-28T14:34:33;96346.09;;;15.07;100.00
35479;BME280;21594;49.794;18.652;2022-09-28T14:37:00;96340.73;;;15.15;100.00
35479;BME280;21594;49.794;18.652;2022-09-28T14:39:46;96335.22;;;15.21;100.00
35479;BME280;21594;49.794;18.652;2022-09-28T14:42:32;96344.19;;;15.26;100.00
35479;BME280;21594;49.794;18.652;2022-09-28T14:47:34;96336.47;;;15.35;100.00
35479;BME280;21594;49.794;18.652;2022-09-28T14:50:02;96339.60;;;15.45;100.00
35479;BME280;21594;49.794;18.652;2022-09-28T14:52:48;96334.57;;;15.55;100.00
35479;BME280;21594;49.794;18.652;2022-09-28T14:55:14;96321.31;;;15.59;100.00
35479;BME280;21594;49.794;18.652;2022-09-28T14:57:48;96333.17;;;15.59;100.00
35479;BME280;21594;49.794;18.652;2022-09-28T15:00:21;96335.06;;;15.54;100.00
35479;BME280;21594;49.794;18.652;2022-09-28T15:02:49;96337.06;;;15.52;100.00
35479;BME280;21594;49.794;18.652;2022-09-28T15:05:31;96352.06;;;15.52;100.00
35479;BME280;21594;49.794;18.652;2022-09-28T15:07:59;96341.06;;;15.48;100.00
35479;BME280;21594;49.794;18.652;2022-09-28T15:12:56;96339.17;;;15.31;100.00
35479;BME280;21594;49.794;18.652;2022-09-28T15:15:25;96343.48;;;15.28;100.00
35479;BME280;21594;49.794;18.652;2022-09-28T15:17:57;96341.98;;;15.30;100.00
35479;BME280;21594;49.794;18.652;2022-09-28T15:20:21;96350.83;;;15.33;100.00
35479;BME280;21594;49.794;18.652;2022-09-28T15:22:54;96358.88;;;15.35;100.00
35479;BME280;21594;49.794;18.652;2022-09-28T15:25:18;96359.55;;;15.33;100.00
35479;BME280;21594;49.794;18.652;2022-09-28T15:27:44;96359.80;;;15.28;100.00
35479;BME280;21594;49.794;18.652;2022-09-28T15:32:40;96366.87;;;15.17;100.00
35479;BME280;21594;49.794;18.652;2022-09-28T15:35:16;96378.79;;;15.13;100.00
35479;BME280;21594;49.794;18.652;2022-09-28T15:37:41;96371.77;;;15.09;100.00
35479;BME280;21594;49.794;18.652;2022-09-28T15:40:12;96376.89;;;15.06;100.00
35479;BME280;21594;49.794;18.652;2022-09-28T15:42:41;96376.57;;;15.05;100.00
35479;BME280;21594;49.794;18.652;2022-09-28T15:47:40;96378.51;;;14.97;100.00
35479;BME280;21594;49.794;18.652;2022-09-28T15:52:51;96392.91;;;14.90;100.00
35479;BME280;21594;49.794;18.652;2022-09-28T15:55:20;96386.23;;;14.84;100.00
35479;BME280;21594;49.794;18.652;2022-09-28T15:57:47;96390.24;;;14.80;100.00
35479;BME280;21594;49.794;18.652;2022-09-28T16:03:00;96397.76;;;14.72;100.00
35479;BME280;21594;49.794;18.652;2022-09-28T16:05:30;96389.06;;;14.68;100.00
35479;BME280;21594;49.794;18.652;2022-09-28T16:08:00;96401.61;;;14.65;100.00
35479;BME280;21594;49.794;18.652;2022-09-28T16:10:27;96397.17;;;14.66;100.00
35479;BME280;21594;49.794;18.652;2022-09-28T16:12:57;96391.75;;;14.63;100.00
35479;BME280;21594;49.794;18.652;2022-09-28T16:15:28;96394.77;;;14.60;100.00
35479;BME280;21594;49.794;18.652;2022-09-28T16:18:03;96398.94;;;14.55;100.00
35479;BME280;21594;49.794;18.652;2022-09-28T16:20:37;96403.44;;;14.50;100.00
35479;BME280;21594;49.794;18.652;2022-09-28T16:25:47;96397.25;;;14.43;100.00
35479;BME280;21594;49.794;18.652;2022-09-28T16:28:23;96403.56;;;14.38;100.00
35479;BME280;21594;49.794;18.652;2022-09-28T16:31:00;96407.52;;;14.34;100.00